sensor_id;sensor_type;location;lat;lon;timestamp;temperature;humidity
23051;DHT22;11693;51.358;12.410;2022-10-31T00:02:12;19.20;99.90
23051;DHT22;11693;51.358;12.410;2022-10-31T00:04:38;19.30;99.90
23051;DHT22;11693;51.358;12.410;2022-10-31T00:07:03;19.30;99.90
23051;DHT22;11693;51.358;12.410;2022-10-31T00:09:29;19.30;99.90
23051;DHT22;11693;51.358;12.410;2022-10-31T00:11:55;19.10;99.90
23051;DHT22;11693;51.358;12.410;2022-10-31T00:14:20;19.10;99.90
23051;DHT22;11693;51.358;12.410;2022-10-31T00:16:46;19.10;99.90
23051;DHT22;11693;51.358;12.410;2022-10-31T00:19:11;19.10;99.90
23051;DHT22;11693;51.358;12.410;2022-10-31T00:21:37;19.10;99.90
23051;DHT22;11693;51.358;12.410;2022-10-31T00:24:03;19.20;99.90
23051;DHT22;11693;51.358;12.410;2022-10-31T00:26:30;19.10;99.90
23051;DHT22;11693;51.358;12.410;2022-10-31T00:28:57;19.20;99.90
23051;DHT22;11693;51.358;12.410;2022-10-31T00:31:23;19.20;99.90
23051;DHT22;11693;51.358;12.410;2022-10-31T00:33:49;19.30;99.90
23051;DHT22;11693;51.358;12.410;2022-10-31T00:36:17;19.40;99.90
23051;DHT22;11693;51.358;12.410;2022-10-31T00:38:43;19.40;99.90
23051;DHT22;11693;51.358;12.410;2022-10-31T00:41:10;19.30;99.90
23051;DHT22;11693;51.358;12.410;2022-10-31T00:43:36;19.20;99.90
23051;DHT22;11693;51.358;12.410;2022-10-31T00:46:02;19.20;99.90
23051;DHT22;11693;51.358;12.410;2022-10-31T00:48:28;19.20;99.90
23051;DHT22;11693;51.358;12.410;2022-10-31T00:50:54;19.20;99.90
23051;DHT22;11693;51.358;12.410;2022-10-31T00:53:20;19.10;99.90
23051;DHT22;11693;51.358;12.410;2022-10-31T00:55:45;19.20;99.90
23051;DHT22;11693;51.358;12.410;2022-10-31T00:58:11;19.10;99.90
23051;DHT22;11693;51.358;12.410;2022-10-31T01:00:37;19.10;99.90
23051;DHT22;11693;51.358;12.410;2022-10-31T01:03:02;19.00;99.90
23051;DHT22;11693;51.358;12.410;2022-10-31T01:05:30;18.90;99.90
23051;DHT22;11693;51.358;12.410;2022-10-31T01:07:56;19.00;99.90
23051;DHT22;11693;51.358;12.410;2022-10-31T01:10:22;19.00;99.90
23051;DHT22;11693;51.358;12.410;2022-10-31T01:12:48;18.80;99.90
23051;DHT22;11693;51.358;12.410;2022-10-31T01:15:19;18.80;99.90
23051;DHT22;11693;51.358;12.410;2022-10-31T01:17:45;18.90;99.90
23051;DHT22;11693;51.358;12.410;2022-10-31T01:20:12;18.70;99.90
23051;DHT22;11693;51.358;12.410;2022-10-31T01:22:38;18.70;99.90
23051;DHT22;11693;51.358;12.410;2022-10-31T01:25:04;18.50;99.90
23051;DHT22;11693;51.358;12.410;2022-10-31T01:27:31;18.60;99.90
23051;DHT22;11693;51.358;12.410;2022-10-31T01:29:57;18.60;99.90
23051;DHT22;11693;51.358;12.410;2022-10-31T01:32:23;18.50;99.90
23051;DHT22;11693;51.358;12.410;2022-10-31T01:34:49;18.60;99.90
23051;DHT22;11693;51.358;12.410;2022-10-31T01:37:14;18.60;99.90
23051;DHT22;11693;51.358;12.410;2022-10-31T01:39:40;18.60;99.90
23051;DHT22;11693;51.358;12.410;2022-10-31T01:42:15;18.60;99.90
23051;DHT22;11693;51.358;12.410;2022-10-31T01:47:14;18.60;99.90
23051;DHT22;11693;51.358;12.410;2022-10-31T01:54:56;18.60;99.90
23051;DHT22;11693;51.358;12.410;2022-10-31T01:57:23;18.50;99.90
23051;DHT22;11693;51.358;12.410;2022-10-31T01:59:55;18.60;99.90
23051;DHT22;11693;51.358;12.410;2022-10-31T02:02:21;18.60;99.90
23051;DHT22;11693;51.358;12.410;2022-10-31T02:04:47;18.60;99.90
23051;DHT22;11693;51.358;12.410;2022-10-31T02:07:16;18.50;99.90
23051;DHT22;11693;51.358;12.410;2022-10-31T02:09:43;18.60;99.90
23051;DHT22;11693;51.358;12.410;2022-10-31T02:12:10;18.50;99.90
23051;DHT22;11693;51.358;12.410;2022-10-31T02:14:38;18.50;99.90
23051;DHT22;11693;51.358;12.410;2022-10-31T02:17:05;18.50;99.90
23051;DHT22;11693;51.358;12.410;2022-10-31T02:20:10;18.40;99.90
23051;DHT22;11693;51.358;12.410;2022-10-31T02:31:00;18.30;99.90
23051;DHT22;11693;51.358;12.410;2022-10-31T02:36:48;18.40;99.90
23051;DHT22;11693;51.358;12.410;2022-10-31T02:39:36;18.40;99.90
23051;DHT22;11693;51.358;12.410;2022-10-31T02:42:22;18.30;99.90
23051;DHT22;11693;51.358;12.410;2022-10-31T02:45:00;18.20;99.90
23051;DHT22;11693;51.358;12.410;2022-10-31T02:47:34;18.20;99.90
23051;DHT22;11693;51.358;12.410;2022-10-31T02:50:13;18.20;99.90
23051;DHT22;11693;51.358;12.410;2022-10-31T02:52:39;18.20;99.90
23051;DHT22;11693;51.358;12.410;2022-10-31T02:57:47;18.10;99.90
23051;DHT22;11693;51.358;12.410;2022-10-31T03:00:13;18.00;99.90
23051;DHT22;11693;51.358;12.410;2022-10-31T03:02:54;18.10;99.90
23051;DHT22;11693;51.358;12.410;2022-10-31T03:05:40;18.00;99.90
23051;DHT22;11693;51.358;12.410;2022-10-31T03:08:34;18.00;99.90
23051;DHT22;11693;51.358;12.410;2022-10-31T03:11:03;18.00;99.90
23051;DHT22;11693;51.358;12.410;2022-10-31T03:16:54;17.90;99.90
23051;DHT22;11693;51.358;12.410;2022-10-31T03:19:30;17.90;99.90
23051;DHT22;11693;51.358;12.410;2022-10-31T03:22:04;17.80;99.90
23051;DHT22;11693;51.358;12.410;2022-10-31T03:24:35;17.90;99.90
23051;DHT22;11693;51.358;12.410;2022-10-31T03:27:04;17.90;99.90
23051;DHT22;11693;51.358;12.410;2022-10-31T03:29:35;17.90;99.90
23051;DHT22;11693;51.358;12.410;2022-10-31T03:32:13;17.90;99.90
23051;DHT22;11693;51.358;12.410;2022-10-31T03:34:42;17.80;99.90
23051;DHT22;11693;51.358;12.410;2022-10-31T03:37:11;17.80;99.90
23051;DHT22;11693;51.358;12.410;2022-10-31T03:39:41;17.80;99.90
23051;DHT22;11693;51.358;12.410;2022-10-31T03:42:31;17.70;99.90
23051;DHT22;11693;51.358;12.410;2022-10-31T03:45:00;17.70;99.90
23051;DHT22;11693;51.358;12.410;2022-10-31T03:47:27;17.70;99.90
23051;DHT22;11693;51.358;12.410;2022-10-31T03:49:53;17.70;99.90
23051;DHT22;11693;51.358;12.410;2022-10-31T03:52:26;17.70;99.90
23051;DHT22;11693;51.358;12.410;2022-10-31T04:00:13;17.70;99.90
23051;DHT22;11693;51.358;12.410;2022-10-31T04:02:43;17.60;99.90
23051;DHT22;11693;51.358;12.410;2022-10-31T04:05:11;17.60;99.90
23051;DHT22;11693;51.358;12.410;2022-10-31T04:07:41;17.70;99.90
23051;DHT22;11693;51.358;12.410;2022-10-31T04:10:12;17.60;99.90
23051;DHT22;11693;51.358;12.410;2022-10-31T04:12:39;17.60;99.90
23051;DHT22;11693;51.358;12.410;2022-10-31T04:15:07;17.60;99.90
23051;DHT22;11693;51.358;12.410;2022-10-31T04:17:37;17.60;99.90
23051;DHT22;11693;51.358;12.410;2022-10-31T04:20:03;17.60;99.90
23051;DHT22;11693;51.358;12.410;2022-10-31T04:22:29;17.60;99.90
23051;DHT22;11693;51.358;12.410;2022-10-31T04:24:55;17.60;99.90
23051;DHT22;11693;51.358;12.410;2022-10-31T04:27:20;17.60;99.90
23051;DHT22;11693;51.358;12.410;2022-10-31T04:29:46;17.50;99.90
23051;DHT22;11693;51.358;12.410;2022-10-31T04:32:11;17.40;99.90
23051;DHT22;11693;51.358;12.410;2022-10-31T04:34:37;17.40;99.90
23051;DHT22;11693;51.358;12.410;2022-10-31T04:37:03;17.40;99.90
23051;DHT22;11693;51.358;12.410;2022-10-31T04:39:28;17.40;99.90
23051;DHT22;11693;51.358;12.410;2022-10-31T04:41:54;17.40;99.90
23051;DHT22;11693;51.358;12.410;2022-10-31T04:44:19;17.40;99.90
23051;DHT22;11693;51.358;12.410;2022-10-31T04:46:45;17.40;99.90
23051;DHT22;11693;51.358;12.410;2022-10-31T04:49:10;17.40;99.90
23051;DHT22;11693;51.358;12.410;2022-10-31T04:51:36;17.30;99.90
23051;DHT22;11693;51.358;12.410;2022-10-31T04:54:01;17.30;99.90
23051;DHT22;11693;51.358;12.410;2022-10-31T04:56:27;17.30;99.90
23051;DHT22;11693;51.358;12.410;2022-10-31T04:58:53;17.30;99.90
23051;DHT22;11693;51.358;12.410;2022-10-31T05:01:19;17.20;99.90
23051;DHT22;11693;51.358;12.410;2022-10-31T05:03:44;17.20;99.90
23051;DHT22;11693;51.358;12.410;2022-10-31T05:06:13;17.20;99.90
23051;DHT22;11693;51.358;12.410;2022-10-31T05:08:38;17.10;99.90
23051;DHT22;11693;51.358;12.410;2022-10-31T05:11:04;17.20;99.90
23051;DHT22;11693;51.358;12.410;2022-10-31T05:13:30;17.10;99.90
23051;DHT22;11693;51.358;12.410;2022-10-31T05:15:56;17.00;99.90
23051;DHT22;11693;51.358;12.410;2022-10-31T05:18:23;16.90;99.90
23051;DHT22;11693;51.358;12.410;2022-10-31T05:20:49;16.90;99.90
23051;DHT22;11693;51.358;12.410;2022-10-31T05:23:14;16.80;99.90
23051;DHT22;11693;51.358;12.410;2022-10-31T05:25:40;16.80;99.90
23051;DHT22;11693;51.358;12.410;2022-10-31T05:28:06;16.90;99.90
23051;DHT22;11693;51.358;12.410;2022-10-31T05:30:33;16.90;99.90
23051;DHT22;11693;51.358;12.410;2022-10-31T05:32:59;16.90;99.90
23051;DHT22;11693;51.358;12.410;2022-10-31T05:35:30;16.90;99.90
23051;DHT22;11693;51.358;12.410;2022-10-31T05:37:57;16.80;99.90
23051;DHT22;11693;51.358;12.410;2022-10-31T05:40:23;16.80;99.90
23051;DHT22;11693;51.358;12.410;2022-10-31T05:42:54;16.80;99.90
23051;DHT22;11693;51.358;12.410;2022-10-31T05:45:21;16.80;99.90
23051;DHT22;11693;51.358;12.410;2022-10-31T05:47:58;16.80;99.90
23051;DHT22;11693;51.358;12.410;2022-10-31T05:50:26;16.80;99.90
23051;DHT22;11693;51.358;12.410;2022-10-31T05:53:00;16.70;99.90
23051;DHT22;11693;51.358;12.410;2022-10-31T05:55:26;16.70;99.90
23051;DHT22;11693;51.358;12.410;2022-10-31T05:57:53;16.70;99.90
23051;DHT22;11693;51.358;12.410;2022-10-31T06:00:20;16.80;99.90
23051;DHT22;11693;51.358;12.410;2022-10-31T06:02:45;16.70;99.90
23051;DHT22;11693;51.358;12.410;2022-10-31T06:05:11;16.80;99.90
23051;DHT22;11693;51.358;12.410;2022-10-31T06:07:37;16.70;99.90
23051;DHT22;11693;51.358;12.410;2022-10-31T06:10:05;16.80;99.90
23051;DHT22;11693;51.358;12.410;2022-10-31T06:12:31;16.80;99.90
23051;DHT22;11693;51.358;12.410;2022-10-31T06:15:03;16.80;99.90
23051;DHT22;11693;51.358;12.410;2022-10-31T06:17:29;16.80;99.90
23051;DHT22;11693;51.358;12.410;2022-10-31T06:19:55;16.80;99.90
23051;DHT22;11693;51.358;12.410;2022-10-31T06:22:20;16.90;99.90
23051;DHT22;11693;51.358;12.410;2022-10-31T06:24:46;16.90;99.90
23051;DHT22;11693;51.358;12.410;2022-10-31T06:27:11;17.00;99.90
23051;DHT22;11693;51.358;12.410;2022-10-31T06:29:37;17.10;99.90
23051;DHT22;11693;51.358;12.410;2022-10-31T06:32:03;17.00;99.90
23051;DHT22;11693;51.358;12.410;2022-10-31T06:34:28;17.00;99.90
23051;DHT22;11693;51.358;12.410;2022-10-31T06:36:54;17.00;99.90
23051;DHT22;11693;51.358;12.410;2022-10-31T06:39:19;17.10;99.90
23051;DHT22;11693;51.358;12.410;2022-10-31T06:41:47;17.30;99.90
23051;DHT22;11693;51.358;12.410;2022-10-31T06:44:13;17.30;99.90
23051;DHT22;11693;51.358;12.410;2022-10-31T06:46:39;17.50;99.90
23051;DHT22;11693;51.358;12.410;2022-10-31T06:49:04;17.60;99.90
23051;DHT22;11693;51.358;12.410;2022-10-31T06:51:30;17.70;99.90
23051;DHT22;11693;51.358;12.410;2022-10-31T06:53:55;17.90;99.90
23051;DHT22;11693;51.358;12.410;2022-10-31T06:56:21;18.30;99.90
23051;DHT22;11693;51.358;12.410;2022-10-31T06:58:46;18.80;99.90
23051;DHT22;11693;51.358;12.410;2022-10-31T07:01:12;19.10;99.90
23051;DHT22;11693;51.358;12.410;2022-10-31T07:03:38;19.40;99.90
23051;DHT22;11693;51.358;12.410;2022-10-31T07:06:03;19.60;99.90
23051;DHT22;11693;51.358;12.410;2022-10-31T07:08:29;19.90;99.90
23051;DHT22;11693;51.358;12.410;2022-10-31T07:10:56;20.10;99.90
23051;DHT22;11693;51.358;12.410;2022-10-31T07:13:22;20.40;99.90
23051;DHT22;11693;51.358;12.410;2022-10-31T07:15:52;20.70;99.90
23051;DHT22;11693;51.358;12.410;2022-10-31T07:18:19;20.90;99.90
23051;DHT22;11693;51.358;12.410;2022-10-31T07:20:45;21.00;99.90
23051;DHT22;11693;51.358;12.410;2022-10-31T07:23:11;21.00;99.90
23051;DHT22;11693;51.358;12.410;2022-10-31T07:25:38;21.00;99.90
23051;DHT22;11693;51.358;12.410;2022-10-31T07:28:04;21.10;99.90
23051;DHT22;11693;51.358;12.410;2022-10-31T07:30:29;21.20;99.90
23051;DHT22;11693;51.358;12.410;2022-10-31T07:32:55;21.40;99.90
23051;DHT22;11693;51.358;12.410;2022-10-31T07:35:23;21.50;99.90
23051;DHT22;11693;51.358;12.410;2022-10-31T07:37:49;21.50;99.90
23051;DHT22;11693;51.358;12.410;2022-10-31T07:40:16;21.80;99.90
23051;DHT22;11693;51.358;12.410;2022-10-31T07:42:44;21.90;99.90
23051;DHT22;11693;51.358;12.410;2022-10-31T07:45:12;22.00;99.90
23051;DHT22;11693;51.358;12.410;2022-10-31T07:47:42;22.10;99.90
23051;DHT22;11693;51.358;12.410;2022-10-31T07:50:09;22.30;99.90
23051;DHT22;11693;51.358;12.410;2022-10-31T07:52:35;22.20;99.90
23051;DHT22;11693;51.358;12.410;2022-10-31T07:55:01;22.20;99.90
23051;DHT22;11693;51.358;12.410;2022-10-31T07:57:26;22.40;99.90
23051;DHT22;11693;51.358;12.410;2022-10-31T07:59:52;22.40;99.70
23051;DHT22;11693;51.358;12.410;2022-10-31T08:02:18;22.50;99.90
23051;DHT22;11693;51.358;12.410;2022-10-31T08:04:43;22.40;99.90
23051;DHT22;11693;51.358;12.410;2022-10-31T08:07:09;22.60;99.50
23051;DHT22;11693;51.358;12.410;2022-10-31T08:09:38;22.80;99.40
23051;DHT22;11693;51.358;12.410;2022-10-31T08:12:04;22.80;99.20
23051;DHT22;11693;51.358;12.410;2022-10-31T08:14:30;22.90;98.90
23051;DHT22;11693;51.358;12.410;2022-10-31T08:16:56;23.00;98.60
23051;DHT22;11693;51.358;12.410;2022-10-31T08:19:21;23.10;98.50
23051;DHT22;11693;51.358;12.410;2022-10-31T08:21:50;23.10;98.30
23051;DHT22;11693;51.358;12.410;2022-10-31T08:24:16;23.30;98.40
23051;DHT22;11693;51.358;12.410;2022-10-31T08:26:42;23.40;97.50
23051;DHT22;11693;51.358;12.410;2022-10-31T08:29:08;23.50;97.80
23051;DHT22;11693;51.358;12.410;2022-10-31T08:31:34;23.50;97.70
23051;DHT22;11693;51.358;12.410;2022-10-31T08:33:59;23.60;97.50
23051;DHT22;11693;51.358;12.410;2022-10-31T08:36:26;23.60;97.40
23051;DHT22;11693;51.358;12.410;2022-10-31T08:38:52;23.60;97.20
23051;DHT22;11693;51.358;12.410;2022-10-31T08:41:18;23.70;97.00
23051;DHT22;11693;51.358;12.410;2022-10-31T08:43:43;23.70;97.00
23051;DHT22;11693;51.358;12.410;2022-10-31T08:46:09;23.70;96.90
23051;DHT22;11693;51.358;12.410;2022-10-31T08:48:34;23.90;96.90
23051;DHT22;11693;51.358;12.410;2022-10-31T08:51:00;23.80;96.80
23051;DHT22;11693;51.358;12.410;2022-10-31T08:53:26;23.90;97.00
23051;DHT22;11693;51.358;12.410;2022-10-31T08:55:55;23.90;97.00
23051;DHT22;11693;51.358;12.410;2022-10-31T08:58:21;24.10;97.50
23051;DHT22;11693;51.358;12.410;2022-10-31T09:00:49;24.10;96.90
23051;DHT22;11693;51.358;12.410;2022-10-31T09:03:24;24.00;97.10
23051;DHT22;11693;51.358;12.410;2022-10-31T09:05:54;24.10;96.80
23051;DHT22;11693;51.358;12.410;2022-10-31T09:08:19;24.00;97.00
23051;DHT22;11693;51.358;12.410;2022-10-31T09:10:45;23.90;97.30
23051;DHT22;11693;51.358;12.410;2022-10-31T09:13:19;23.70;97.60
23051;DHT22;11693;51.358;12.410;2022-10-31T09:15:47;23.70;97.80
23051;DHT22;11693;51.358;12.410;2022-10-31T09:18:15;24.00;98.00
23051;DHT22;11693;51.358;12.410;2022-10-31T09:20:42;24.10;98.20
23051;DHT22;11693;51.358;12.410;2022-10-31T09:23:16;24.10;98.60
23051;DHT22;11693;51.358;12.410;2022-10-31T09:25:43;24.40;98.70
23051;DHT22;11693;51.358;12.410;2022-10-31T09:28:11;24.50;98.70
23051;DHT22;11693;51.358;12.410;2022-10-31T09:30:37;24.70;98.60
23051;DHT22;11693;51.358;12.410;2022-10-31T09:33:06;24.80;98.50
23051;DHT22;11693;51.358;12.410;2022-10-31T09:35:32;24.70;98.60
23051;DHT22;11693;51.358;12.410;2022-10-31T09:37:59;25.00;98.70
23051;DHT22;11693;51.358;12.410;2022-10-31T09:40:47;25.20;98.40
23051;DHT22;11693;51.358;12.410;2022-10-31T09:43:42;25.40;98.20
23051;DHT22;11693;51.358;12.410;2022-10-31T09:49:24;25.40;98.20
23051;DHT22;11693;51.358;12.410;2022-10-31T09:52:09;25.20;98.40
23051;DHT22;11693;51.358;12.410;2022-10-31T09:54:56;25.10;98.70
23051;DHT22;11693;51.358;12.410;2022-10-31T09:57:33;24.90;99.10
23051;DHT22;11693;51.358;12.410;2022-10-31T09:59:59;24.90;99.40
23051;DHT22;11693;51.358;12.410;2022-10-31T10:02:37;24.90;99.40
23051;DHT22;11693;51.358;12.410;2022-10-31T10:05:11;25.10;99.60
23051;DHT22;11693;51.358;12.410;2022-10-31T10:13:39;25.10;99.50
23051;DHT22;11693;51.358;12.410;2022-10-31T10:18:43;25.20;99.50
23051;DHT22;11693;51.358;12.410;2022-10-31T10:21:23;25.20;99.30
23051;DHT22;11693;51.358;12.410;2022-10-31T10:26:36;25.10;99.60
23051;DHT22;11693;51.358;12.410;2022-10-31T10:29:14;25.30;99.50
23051;DHT22;11693;51.358;12.410;2022-10-31T10:31:43;25.50;99.20
23051;DHT22;11693;51.358;12.410;2022-10-31T10:34:18;25.60;99.30
23051;DHT22;11693;51.358;12.410;2022-10-31T10:37:00;25.90;99.00
23051;DHT22;11693;51.358;12.410;2022-10-31T10:42:11;26.30;98.40
23051;DHT22;11693;51.358;12.410;2022-10-31T10:44:55;26.30;98.00
23051;DHT22;11693;51.358;12.410;2022-10-31T10:47:52;26.40;97.90
23051;DHT22;11693;51.358;12.410;2022-10-31T10:50:25;26.40;97.80
23051;DHT22;11693;51.358;12.410;2022-10-31T10:53:06;26.50;97.90
23051;DHT22;11693;51.358;12.410;2022-10-31T10:55:41;26.70;97.80
23051;DHT22;11693;51.358;12.410;2022-10-31T10:58:10;26.70;97.60
23051;DHT22;11693;51.358;12.410;2022-10-31T11:00:43;26.80;97.70
23051;DHT22;11693;51.358;12.410;2022-10-31T11:03:11;27.00;97.30
23051;DHT22;11693;51.358;12.410;2022-10-31T11:05:53;27.30;97.00
23051;DHT22;11693;51.358;12.410;2022-10-31T11:08:28;27.60;96.60
23051;DHT22;11693;51.358;12.410;2022-10-31T11:11:31;27.90;96.40
23051;DHT22;11693;51.358;12.410;2022-10-31T11:14:03;28.20;95.80
23051;DHT22;11693;51.358;12.410;2022-10-31T11:16:33;28.50;95.20
23051;DHT22;11693;51.358;12.410;2022-10-31T11:19:21;28.70;94.90
23051;DHT22;11693;51.358;12.410;2022-10-31T11:21:48;28.80;94.40
23051;DHT22;11693;51.358;12.410;2022-10-31T11:24:16;28.80;94.30
23051;DHT22;11693;51.358;12.410;2022-10-31T11:26:44;28.90;94.10
23051;DHT22;11693;51.358;12.410;2022-10-31T11:31:40;29.50;93.20
23051;DHT22;11693;51.358;12.410;2022-10-31T11:34:18;29.70;93.00
23051;DHT22;11693;51.358;12.410;2022-10-31T11:36:45;30.00;92.50
23051;DHT22;11693;51.358;12.410;2022-10-31T11:39:22;30.00;92.00
23051;DHT22;11693;51.358;12.410;2022-10-31T11:41:49;29.80;91.90
23051;DHT22;11693;51.358;12.410;2022-10-31T11:44:27;29.80;91.80
23051;DHT22;11693;51.358;12.410;2022-10-31T11:46:59;29.70;91.90
23051;DHT22;11693;51.358;12.410;2022-10-31T11:49:45;29.80;91.60
23051;DHT22;11693;51.358;12.410;2022-10-31T11:52:24;29.60;91.50
23051;DHT22;11693;51.358;12.410;2022-10-31T11:54:58;29.40;91.90
23051;DHT22;11693;51.358;12.410;2022-10-31T11:57:47;29.60;92.10
23051;DHT22;11693;51.358;12.410;2022-10-31T12:00:33;30.10;91.80
23051;DHT22;11693;51.358;12.410;2022-10-31T12:03:37;30.40;90.80
23051;DHT22;11693;51.358;12.410;2022-10-31T12:06:15;30.50;90.40
23051;DHT22;11693;51.358;12.410;2022-10-31T12:08:43;30.60;89.80
23051;DHT22;11693;51.358;12.410;2022-10-31T12:11:33;30.50;90.00
23051;DHT22;11693;51.358;12.410;2022-10-31T12:17:29;30.60;89.90
23051;DHT22;11693;51.358;12.410;2022-10-31T12:20:02;30.70;89.50
23051;DHT22;11693;51.358;12.410;2022-10-31T12:25:52;30.40;89.40
23051;DHT22;11693;51.358;12.410;2022-10-31T12:28:44;30.50;89.80
23051;DHT22;11693;51.358;12.410;2022-10-31T12:37:16;30.20;88.80
23051;DHT22;11693;51.358;12.410;2022-10-31T12:54:29;27.00;93.70
23051;DHT22;11693;51.358;12.410;2022-10-31T12:57:16;26.60;94.40
23051;DHT22;11693;51.358;12.410;2022-10-31T12:59:47;26.40;94.90
23051;DHT22;11693;51.358;12.410;2022-10-31T13:05:39;26.10;95.60
23051;DHT22;11693;51.358;12.410;2022-10-31T13:07:54;25.70;96.10
23051;DHT22;11693;51.358;12.410;2022-10-31T13:10:42;25.50;96.70
23051;DHT22;11693;51.358;12.410;2022-10-31T13:16:17;24.90;97.60
23051;DHT22;11693;51.358;12.410;2022-10-31T13:21:39;24.80;98.30
23051;DHT22;11693;51.358;12.410;2022-10-31T13:24:13;24.80;98.40
23051;DHT22;11693;51.358;12.410;2022-10-31T13:26:47;24.80;98.50
23051;DHT22;11693;51.358;12.410;2022-10-31T13:29:33;24.70;98.70
23051;DHT22;11693;51.358;12.410;2022-10-31T13:32:03;24.70;99.00
23051;DHT22;11693;51.358;12.410;2022-10-31T13:34:52;24.70;99.10
23051;DHT22;11693;51.358;12.410;2022-10-31T13:37:37;24.70;99.10
23051;DHT22;11693;51.358;12.410;2022-10-31T13:43:12;24.60;98.50
23051;DHT22;11693;51.358;12.410;2022-10-31T13:45:52;24.50;98.80
23051;DHT22;11693;51.358;12.410;2022-10-31T13:51:03;24.30;98.60
23051;DHT22;11693;51.358;12.410;2022-10-31T13:56:24;24.10;99.00
23051;DHT22;11693;51.358;12.410;2022-10-31T14:01:36;23.90;99.40
23051;DHT22;11693;51.358;12.410;2022-10-31T14:04:16;23.90;99.70
23051;DHT22;11693;51.358;12.410;2022-10-31T14:06:52;23.80;99.70
23051;DHT22;11693;51.358;12.410;2022-10-31T14:09:24;24.00;99.70
23051;DHT22;11693;51.358;12.410;2022-10-31T14:11:51;24.00;99.70
23051;DHT22;11693;51.358;12.410;2022-10-31T14:14:18;24.10;99.60
23051;DHT22;11693;51.358;12.410;2022-10-31T14:16:45;24.20;99.40
23051;DHT22;11693;51.358;12.410;2022-10-31T14:19:19;24.10;99.50
23051;DHT22;11693;51.358;12.410;2022-10-31T14:21:46;24.00;99.90
23051;DHT22;11693;51.358;12.410;2022-10-31T14:26:56;23.90;99.90
23051;DHT22;11693;51.358;12.410;2022-10-31T14:29:25;23.90;99.90
23051;DHT22;11693;51.358;12.410;2022-10-31T14:34:53;23.80;99.90
23051;DHT22;11693;51.358;12.410;2022-10-31T14:37:53;23.70;99.90
23051;DHT22;11693;51.358;12.410;2022-10-31T14:48:24;23.10;99.90
23051;DHT22;11693;51.358;12.410;2022-10-31T14:50:56;23.00;99.90
23051;DHT22;11693;51.358;12.410;2022-10-31T14:53:41;22.90;99.90
23051;DHT22;11693;51.358;12.410;2022-10-31T14:56:10;22.80;99.90
23051;DHT22;11693;51.358;12.410;2022-10-31T14:58:44;22.70;99.90
23051;DHT22;11693;51.358;12.410;2022-10-31T15:01:51;22.50;99.90
23051;DHT22;11693;51.358;12.410;2022-10-31T15:04:21;22.40;99.90
23051;DHT22;11693;51.358;12.410;2022-10-31T15:07:16;22.30;99.90
23051;DHT22;11693;51.358;12.410;2022-10-31T15:09:40;22.20;99.90
23051;DHT22;11693;51.358;12.410;2022-10-31T15:12:29;22.10;99.90
23051;DHT22;11693;51.358;12.410;2022-10-31T15:14:55;22.00;99.90
23051;DHT22;11693;51.358;12.410;2022-10-31T15:17:23;21.90;99.90
23051;DHT22;11693;51.358;12.410;2022-10-31T15:19:50;21.90;99.90
23051;DHT22;11693;51.358;12.410;2022-10-31T15:22:18;21.80;99.90
23051;DHT22;11693;51.358;12.410;2022-10-31T15:24:45;21.70;99.90
23051;DHT22;11693;51.358;12.410;2022-10-31T15:27:17;21.60;99.90
23051;DHT22;11693;51.358;12.410;2022-10-31T15:29:53;21.60;99.90
23051;DHT22;11693;51.358;12.410;2022-10-31T15:32:28;21.60;99.90
23051;DHT22;11693;51.358;12.410;2022-10-31T15:34:55;21.50;99.90
23051;DHT22;11693;51.358;12.410;2022-10-31T15:37:22;21.40;99.90
23051;DHT22;11693;51.358;12.410;2022-10-31T15:39:51;21.40;99.90
23051;DHT22;11693;51.358;12.410;2022-10-31T15:44:59;21.40;99.90
23051;DHT22;11693;51.358;12.410;2022-10-31T15:47:25;21.40;99.90
23051;DHT22;11693;51.358;12.410;2022-10-31T15:49:56;21.40;99.90
23051;DHT22;11693;51.358;12.410;2022-10-31T15:52:32;21.40;99.90
23051;DHT22;11693;51.358;12.410;2022-10-31T15:55:03;21.40;99.90
23051;DHT22;11693;51.358;12.410;2022-10-31T15:57:29;21.40;99.90
23051;DHT22;11693;51.358;12.410;2022-10-31T15:59:56;21.30;99.90
23051;DHT22;11693;51.358;12.410;2022-10-31T16:02:23;21.30;99.90
23051;DHT22;11693;51.358;12.410;2022-10-31T16:04:55;21.20;99.90
23051;DHT22;11693;51.358;12.410;2022-10-31T16:07:21;21.10;99.90
23051;DHT22;11693;51.358;12.410;2022-10-31T16:10:01;21.00;99.90
23051;DHT22;11693;51.358;12.410;2022-10-31T16:12:42;20.90;99.90
23051;DHT22;11693;51.358;12.410;2022-10-31T16:15:14;20.80;99.90
23051;DHT22;11693;51.358;12.410;2022-10-31T16:17:43;20.70;99.90
23051;DHT22;11693;51.358;12.410;2022-10-31T16:20:20;20.50;99.90
23051;DHT22;11693;51.358;12.410;2022-10-31T16:22:49;20.60;99.90
23051;DHT22;11693;51.358;12.410;2022-10-31T16:25:38;20.50;99.90
23051;DHT22;11693;51.358;12.410;2022-10-31T16:28:13;20.40;99.90
23051;DHT22;11693;51.358;12.410;2022-10-31T16:30:42;20.40;99.90
23051;DHT22;11693;51.358;12.410;2022-10-31T16:33:33;20.30;99.90
23051;DHT22;11693;51.358;12.410;2022-10-31T16:36:28;20.30;99.90
23051;DHT22;11693;51.358;12.410;2022-10-31T16:38:46;20.20;99.90
23051;DHT22;11693;51.358;12.410;2022-10-31T16:41:12;20.10;99.90
23051;DHT22;11693;51.358;12.410;2022-10-31T16:43:37;20.10;99.90
23051;DHT22;11693;51.358;12.410;2022-10-31T16:46:03;20.20;99.90
23051;DHT22;11693;51.358;12.410;2022-10-31T16:48:29;20.20;99.90
23051;DHT22;11693;51.358;12.410;2022-10-31T16:50:54;20.10;99.90
23051;DHT22;11693;51.358;12.410;2022-10-31T16:53:20;20.10;99.90
23051;DHT22;11693;51.358;12.410;2022-10-31T16:55:59;20.10;99.90
23051;DHT22;11693;51.358;12.410;2022-10-31T16:58:31;20.10;99.90
23051;DHT22;11693;51.358;12.410;2022-10-31T17:00:58;20.10;99.90
23051;DHT22;11693;51.358;12.410;2022-10-31T17:03:25;20.10;99.90
23051;DHT22;11693;51.358;12.410;2022-10-31T17:05:50;20.10;99.90
23051;DHT22;11693;51.358;12.410;2022-10-31T17:08:16;20.00;99.90
23051;DHT22;11693;51.358;12.410;2022-10-31T17:10:42;20.00;99.90
23051;DHT22;11693;51.358;12.410;2022-10-31T17:13:33;20.00;99.90
23051;DHT22;11693;51.358;12.410;2022-10-31T17:15:59;19.90;99.90
23051;DHT22;11693;51.358;12.410;2022-10-31T17:18:25;19.90;99.90
23051;DHT22;11693;51.358;12.410;2022-10-31T17:20:55;19.80;99.90
23051;DHT22;11693;51.358;12.410;2022-10-31T17:23:21;19.90;99.90
23051;DHT22;11693;51.358;12.410;2022-10-31T17:25:47;19.80;99.90
23051;DHT22;11693;51.358;12.410;2022-10-31T17:28:13;19.70;99.90
23051;DHT22;11693;51.358;12.410;2022-10-31T17:30:42;19.70;99.90